Mg Kronos — 3EXU9 — position and weather

sailwx.info

Track history (hours):
 
Tides and Currents Weather Stations Pressure Air Temp Water Temp Dewpoint Dewpoint Depression Visibility Wind Speed Wind Dir Waves Ship Positions

Mg Kronos

Last reported at 2017-Sep-02 08:09 UTC. Time now 2017-Sep-20 02:12 UTC.
Position S 27°47' E 153°54'.
Warning: this ship's position is 17 days out of date.

Length 228 m; draft 13.7 m.

Type: Cargo ship. MMSI: 371207000.

Date/timePositionNaut miles runAvg speedWind from/ knotsBaromVisibWave heightAir tempDewpointWater temp
2017-Sep-02 08:09S 27°47' E 153°54'310.1
2017-Sep-02 07:50S 27°50' E 153°54'3 9.8
2017-Sep-02 07:29S 27°54' E 153°54'5 9.7
2017-Sep-02 07:00S 27°58' E 153°53'5 9.6
2017-Sep-02 06:30S 28°03' E 153°53'5 9.7
2017-Sep-02 06:00S 28°08' E 153°53'5 9.7
2017-Sep-02 05:30S 28°13' E 153°53'5 9.6
2017-Sep-02 05:00S 28°17' E 153°52'5 9.5
2017-Sep-02 04:30S 28°22' E 153°52'5 9.5
2017-Sep-02 04:00S 28°27' E 153°52'25310.6
2017-Sep-01 04:12S 32°33' E 152°40'210.2
2017-Sep-01 04:00S 32°34' E 152°39'510.7
2017-Sep-01 03:30S 32°38' E 152°34'510.6
2017-Sep-01 03:00S 32°42' E 152°30'510.7
2017-Sep-01 02:30S 32°45' E 152°25'510.1
2017-Sep-01 02:00S 32°48' E 152°20'510.2
2017-Sep-01 01:30S 32°50' E 152°15'510.0
2017-Sep-01 01:00S 32°52' E 152°09'510.0
2017-Sep-01 00:30S 32°53' E 152°03'510.1
2017-Sep-01 00:00S 32°55' E 151°58'510.2
2017-Aug-31 23:30S 32°56' E 151°52'3 6.6
2017-Aug-31 23:00S 32°55' E 151°48'2 3.3
2017-Aug-31 22:30S 32°54' E 151°46'0 0.0
2017-Aug-31 22:00S 32°54' E 151°46'0 0.0
2017-Aug-31 21:30S 32°54' E 151°46'0 0.0
2017-Aug-31 21:00S 32°54' E 151°46'0 0.0
2017-Aug-31 20:30S 32°54' E 151°46'0 0.1
2017-Aug-31 20:00S 32°54' E 151°46'0 0.1
2017-Aug-31 19:30S 32°54' E 151°46'0 0.0
2017-Aug-31 19:00S 32°54' E 151°46'0 0.0
2017-Aug-31 18:30S 32°54' E 151°46'0 0.0
2017-Aug-31 18:00S 32°54' E 151°46'0 0.0
2017-Aug-31 17:30S 32°54' E 151°46'0 0.1
2017-Aug-31 17:00S 32°54' E 151°46'0 0.0
2017-Aug-31 16:30S 32°54' E 151°46'0 0.1
2017-Aug-31 16:00S 32°54' E 151°46'0 0.0
2017-Aug-31 15:30S 32°54' E 151°46'0 0.0
2017-Aug-31 15:00S 32°54' E 151°46'0 0.0
2017-Aug-31 14:30S 32°54' E 151°46'0 0.1
2017-Aug-31 14:00S 32°54' E 151°46'0 0.1
2017-Aug-31 13:30S 32°54' E 151°46'0 0.0
2017-Aug-31 13:00S 32°54' E 151°46'0 0.0
2017-Aug-31 12:30S 32°54' E 151°46'0 0.1
2017-Aug-31 12:00S 32°54' E 151°46'0 0.1
2017-Aug-31 11:30S 32°54' E 151°46'0 0.1
2017-Aug-31 11:00S 32°54' E 151°46'0 0.0
2017-Aug-31 10:30S 32°54' E 151°46'0 0.1
2017-Aug-31 10:00S 32°54' E 151°46'0 0.1
2017-Aug-31 09:30S 32°54' E 151°46'0 0.1
2017-Aug-31 09:00S 32°54' E 151°46'0 0.0
2017-Aug-31 08:30S 32°54' E 151°46'0 0.0
2017-Aug-31 08:00S 32°54' E 151°46'0 0.0
2017-Aug-31 07:30S 32°54' E 151°46'0 0.1
2017-Aug-31 07:00S 32°54' E 151°46'0 0.0
2017-Aug-31 06:30S 32°54' E 151°46'0 0.0
2017-Aug-31 06:00S 32°54' E 151°46'0 0.1
2017-Aug-31 05:30S 32°54' E 151°46'0 0.0
2017-Aug-31 05:00S 32°54' E 151°46'0 0.0
2017-Aug-31 04:30S 32°54' E 151°46'0 0.0
2017-Aug-31 04:00S 32°54' E 151°46'0 0.1
2017-Aug-31 03:30S 32°54' E 151°46'0 0.1
2017-Aug-31 03:00S 32°54' E 151°46'0 0.0
2017-Aug-31 02:30S 32°54' E 151°46'0 0.0
2017-Aug-31 02:00S 32°54' E 151°46'0 0.1
2017-Aug-31 01:30S 32°54' E 151°46'0 0.1
2017-Aug-31 01:00S 32°54' E 151°46'0 0.0
2017-Aug-31 00:30S 32°54' E 151°46'0 0.0
2017-Aug-31 00:00S 32°54' E 151°46'0 0.0
2017-Aug-30 23:30S 32°54' E 151°46'0 0.1
2017-Aug-30 23:00S 32°54' E 151°46'0 0.1
2017-Aug-30 22:30S 32°54' E 151°46'0 0.0
2017-Aug-30 22:00S 32°54' E 151°46'0 0.0
2017-Aug-30 21:30S 32°54' E 151°46'0 0.0
2017-Aug-30 21:00S 32°54' E 151°46'0 0.0
2017-Aug-30 20:30S 32°54' E 151°46'0 0.0
2017-Aug-30 20:00S 32°54' E 151°46'0 0.0
2017-Aug-30 19:30S 32°54' E 151°46'0 0.0
2017-Aug-30 19:00S 32°54' E 151°46'0 0.1
2017-Aug-30 18:30S 32°54' E 151°46'0 0.1
2017-Aug-30 18:00S 32°54' E 151°46'0 0.0
2017-Aug-30 17:30S 32°54' E 151°46'0 0.0
2017-Aug-30 17:00S 32°54' E 151°46'0 0.0
2017-Aug-30 16:30S 32°54' E 151°46'0 0.0
2017-Aug-30 16:00S 32°54' E 151°46'0 0.0
2017-Aug-30 15:30S 32°54' E 151°46'0 0.1
2017-Aug-30 15:00S 32°54' E 151°46'0 0.1
2017-Aug-30 14:30S 32°54' E 151°46'0 0.0
2017-Aug-30 14:00S 32°54' E 151°46'0 0.0
2017-Aug-30 13:30S 32°54' E 151°46'0 0.0
2017-Aug-30 13:00S 32°54' E 151°46'0 0.0
2017-Aug-30 12:30S 32°54' E 151°46'0 0.0
2017-Aug-30 12:00S 32°54' E 151°46'0 0.1
2017-Aug-30 11:30S 32°54' E 151°46'0 0.0
2017-Aug-30 11:00S 32°54' E 151°46'0 0.1
2017-Aug-30 10:30S 32°54' E 151°46'0 0.1
2017-Aug-30 10:00S 32°54' E 151°46'0 0.1
2017-Aug-30 09:30S 32°54' E 151°46'0 0.0
2017-Aug-30 09:00S 32°54' E 151°46'0 0.0
2017-Aug-30 08:30S 32°54' E 151°46'0 0.1
2017-Aug-30 08:00S 32°54' E 151°46'0 0.1
2017-Aug-30 07:30S 32°54' E 151°46'0 0.0
2017-Aug-30 07:00S 32°54' E 151°46'0 0.1
2017-Aug-30 06:30S 32°54' E 151°46'0 0.1
2017-Aug-30 06:00S 32°54' E 151°46'0 0.0
2017-Aug-30 05:30S 32°54' E 151°46'0 0.0
2017-Aug-30 05:00S 32°54' E 151°46'0 0.0
2017-Aug-30 04:30S 32°54' E 151°46'0 0.0
2017-Aug-30 04:00S 32°54' E 151°46'0 0.1
2017-Aug-30 03:30S 32°54' E 151°46'0 0.1
2017-Aug-30 03:00S 32°54' E 151°46'0 0.0
2017-Aug-30 02:30S 32°54' E 151°46'0 0.0
2017-Aug-30 02:00S 32°54' E 151°46'0 0.0
2017-Aug-30 01:30S 32°54' E 151°46'1 1.1
2017-Aug-30 01:00S 32°54' E 151°46'2 3.5
2017-Aug-30 00:28S 32°55' E 151°47'3 7.4
2017-Aug-30 00:00S 32°57' E 151°51'3 6.7
2017-Aug-29 23:30S 32°60' E 151°52'4 7.0
2017-Aug-29 23:00S 33°03' E 151°50'3 5.0
2017-Aug-29 22:30S 33°03' E 151°47'1 1.3
2017-Aug-29 21:40S 33°03' E 151°46'0 0.3
2017-Aug-29 21:28S 33°03' E 151°46'0 0.1
2017-Aug-29 20:58S 33°03' E 151°46'0 0.0
2017-Aug-29 20:28S 33°03' E 151°46'0 0.0
2017-Aug-29 19:58S 33°03' E 151°46'0 0.1
2017-Aug-29 19:28S 33°03' E 151°46'0 0.0
2017-Aug-29 18:58S 33°03' E 151°46'0 0.0
2017-Aug-29 18:28S 33°03' E 151°46'0 0.1
2017-Aug-29 17:58S 33°03' E 151°46'0 0.1
2017-Aug-29 17:25S 33°03' E 151°46'0 0.0
2017-Aug-29 16:55S 33°03' E 151°46'0 0.0
2017-Aug-29 16:28S 33°03' E 151°46'0 0.0
2017-Aug-29 15:58S 33°03' E 151°46'0 0.1
2017-Aug-29 15:28S 33°03' E 151°46'0 0.0
2017-Aug-29 14:58S 33°03' E 151°46'0 0.1
2017-Aug-29 14:28S 33°03' E 151°46'0 0.0
2017-Aug-29 13:58S 33°03' E 151°46'0 0.0
2017-Aug-29 13:28S 33°03' E 151°46'0 0.1
2017-Aug-29 12:58S 33°03' E 151°46'0 0.0
2017-Aug-29 12:28S 33°03' E 151°46'0 0.0
2017-Aug-29 11:58S 33°03' E 151°46'0 0.0
2017-Aug-29 11:25S 33°03' E 151°46'0 0.0
2017-Aug-29 08:01S 33°03' E 151°46'0 0.0
2017-Aug-29 05:31S 33°03' E 151°46'0 0.0
2017-Aug-29 05:13S 33°03' E 151°46'0 0.0
2017-Aug-29 04:58S 33°03' E 151°46'0 0.0
2017-Aug-29 01:04S 33°03' E 151°46'0 1.0
2017-Aug-29 00:58S 33°03' E 151°46'0 1.0
2017-Aug-29 00:30S 33°03' E 151°46'2 4.7
2017-Aug-29 00:00S 33°04' E 151°49'4 8.3
2017-Aug-28 23:30S 33°06' E 151°53'611.7
2017-Aug-28 23:00S 33°05' E 152°00'612.0
2017-Aug-28 22:30S 33°04' E 152°07'2 3.1
2017-Aug-28 21:58S 33°04' E 152°09'1 1.1
2017-Aug-28 21:28S 33°05' E 152°09'1 1.1
2017-Aug-28 20:58S 33°05' E 152°09'1 1.1
2017-Aug-28 20:28S 33°06' E 152°09'1 1.3
2017-Aug-28 19:58S 33°06' E 152°08'1 1.3
2017-Aug-28 19:28S 33°07' E 152°08'1 1.4
2017-Aug-28 19:00S 33°07' E 152°08'1 1.3
2017-Aug-28 18:28S 33°08' E 152°08'1 1.4
2017-Aug-28 17:58S 33°09' E 152°08'1 1.4
2017-Aug-28 17:28S 33°09' E 152°08'2 1.3
2017-Aug-28 15:40S 33°12' E 152°07'0 1.5
2017-Aug-28 15:31S 33°12' E 152°07'1 1.5
2017-Aug-28 14:50S 33°13' E 152°06'1 1.5
2017-Aug-28 14:11S 33°14' E 152°06'0 1.5
2017-Aug-28 14:00S 33°14' E 152°06'1 1.4
2017-Aug-28 13:20S 33°15' E 152°05'2 5.8
2017-Aug-28 13:00S 33°14' E 152°04'5 9.6
2017-Aug-28 12:31S 33°09' E 152°02'4 8.9
2017-Aug-28 12:00S 33°05' E 152°00'3 6.6
2017-Aug-28 11:30S 33°02' E 151°59'1 2.4
2017-Aug-28 11:00S 33°02' E 152°00'1 2.5
2017-Aug-28 10:30S 33°03' E 152°01'1 2.5
2017-Aug-28 10:01S 33°04' E 152°02'1 2.5
2017-Aug-28 09:31S 33°05' E 152°03'1 2.5
2017-Aug-28 09:00S 33°06' E 152°04'1 2.6
2017-Aug-28 08:31S 33°07' E 152°05'1 2.8
2017-Aug-28 08:00S 33°08' E 152°06'3 2.7
2017-Aug-28 06:53S 33°06' E 152°09'2 5.2
2017-Aug-28 06:31S 33°05' E 152°10'2 4.2
2017-Aug-28 06:00S 33°03' E 152°11'2 4.5
2017-Aug-28 05:30S 33°01' E 152°12'3 5.3
2017-Aug-28 05:00S 32°59' E 152°14'3 5.4
2017-Aug-28 04:30S 32°56' E 152°15'3 5.0
2017-Aug-28 04:00S 32°54' E 152°17'1 2.6
2017-Aug-28 03:30S 32°54' E 152°19'1 2.9
2017-Aug-28 03:00S 32°55' E 152°19'1 2.9
2017-Aug-28 02:30S 32°57' E 152°19'1 2.9
2017-Aug-28 02:00S 32°58' E 152°20'1 2.8
2017-Aug-28 01:30S 32°59' E 152°20'2 3.6
2017-Aug-28 01:00S 32°59' E 152°22'1 2.0
2017-Aug-28 00:30S 32°58' E 152°23'2 5.0
2017-Aug-28 00:00S 32°56' E 152°25'2 3.5
2017-Aug-27 23:30S 32°55' E 152°27'1 2.2
2017-Aug-27 23:00S 32°56' E 152°26'1 2.2
2017-Aug-27 22:30S 32°57' E 152°25'1 2.2
2017-Aug-27 22:00S 32°58' E 152°24'1 2.1
2017-Aug-27 21:30S 32°58' E 152°23'1 2.0
2017-Aug-27 20:59S 32°59' E 152°23'1 1.9
2017-Aug-27 20:28S 32°60' E 152°22'1 1.9
2017-Aug-27 19:58S 33°00' E 152°21'1 1.8
2017-Aug-27 19:29S 33°01' E 152°20'1 1.8
2017-Aug-27 18:59S 33°02' E 152°19'1 1.7
2017-Aug-27 18:29S 33°02' E 152°19'1 1.9
2017-Aug-27 17:59S 33°03' E 152°18'1 1.8
2017-Aug-27 17:29S 33°03' E 152°17'1 1.8
2017-Aug-27 16:53S 33°04' E 152°16'1 1.7
2017-Aug-27 16:29S 33°05' E 152°15'1 1.7
2017-Aug-27 15:59S 33°05' E 152°15'1 1.6
2017-Aug-27 15:29S 33°06' E 152°14'1 1.5
2017-Aug-27 14:59S 33°06' E 152°14'1 1.6
2017-Aug-27 14:29S 33°07' E 152°13'1 1.5
2017-Aug-27 13:59S 33°08' E 152°12'1 1.5
2017-Aug-27 13:29S 33°08' E 152°12'1 1.5
2017-Aug-27 12:59S 33°09' E 152°12'1 1.6
2017-Aug-27 12:29S 33°10' E 152°11'1 1.6
2017-Aug-27 11:59S 33°10' E 152°10'2 1.8
2017-Aug-27 10:47S 33°12' E 152°09'1 2.0
2017-Aug-27 10:05S 33°13' E 152°07'0 2.0
2017-Aug-27 09:59S 33°13' E 152°07'1 1.9
2017-Aug-27 09:29S 33°13' E 152°06'5 9.7
2017-Aug-27 08:55S 33°11' E 152°00'511.8
2017-Aug-27 08:30S 33°10' E 151°54'612.0
2017-Aug-27 08:01S 33°07' E 151°48'3 0.4
2017-Aug-26 23:33S 33°06' E 151°45'0 0.5
2017-Aug-26 23:27S 33°06' E 151°45'0 0.0
2017-Aug-26 23:00S 33°06' E 151°45'0 0.1
2017-Aug-26 22:30S 33°06' E 151°45'0 0.1
2017-Aug-26 22:00S 33°06' E 151°45'0 0.1
2017-Aug-26 21:30S 33°06' E 151°45'0 0.1
2017-Aug-26 21:00S 33°06' E 151°45'0 0.8
2017-Aug-26 20:30S 33°06' E 151°45'2 4.2
2017-Aug-26 20:00S 33°06' E 151°48'3 6.4
2017-Aug-26 19:30S 33°06' E 151°51'2 4.6
2017-Aug-26 19:00S 33°04' E 151°54'5 9.5
2017-Aug-26 18:31S 33°01' E 151°58'713.6
2017-Aug-26 18:00S 32°57' E 152°04'713.7
2017-Aug-26 17:30S 32°52' E 152°10'713.8
2017-Aug-26 17:00S 32°48' E 152°17'714.1
2017-Aug-26 16:31S 32°44' E 152°23'714.0
2017-Aug-26 16:01S 32°39' E 152°30'713.7
2017-Aug-26 15:30S 32°35' E 152°36'713.2
2017-Aug-26 15:00S 32°31' E 152°42'6 0.1
2017-Aug-24 11:43S 32°33' E 152°49'4 6.4
2017-Aug-24 11:09S 32°33' E 152°45'0 2.8
2017-Aug-24 11:00S 32°34' E 152°45'2 3.1
2017-Aug-24 10:30S 32°35' E 152°46'2 3.3
2017-Aug-24 10:01S 32°36' E 152°47'2 3.2
2017-Aug-24 09:31S 32°38' E 152°48'2 3.2
2017-Aug-24 09:01S 32°39' E 152°49'2 3.0
2017-Aug-24 08:30S 32°40' E 152°50'1 2.8
2017-Aug-24 08:00S 32°42' E 152°51'1 2.6
2017-Aug-24 07:30S 32°43' E 152°52'  
Track history (hours):
 
Tides and Currents Weather Stations Pressure Air Temp Water Temp Dewpoint Dewpoint Depression Visibility Wind Speed Wind Dir Waves Ship Positions

Mg Kronos

Last reported at 2017-Sep-02 08:09 UTC. Time now 2017-Sep-20 02:12 UTC.
Position S 27°47' E 153°54'.
Warning: this ship's position is 17 days out of date.

Length 228 m; draft 13.7 m.

Type: Cargo ship. MMSI: 371207000.

Date/timePositionNaut miles runAvg speedWind from/ knotsBaromVisibWave heightAir tempDewpointWater temp
2017-Sep-02 08:09S 27°47' E 153°54'310.1
2017-Sep-02 07:50S 27°50' E 153°54'3 9.8
2017-Sep-02 07:29S 27°54' E 153°54'5 9.7
2017-Sep-02 07:00S 27°58' E 153°53'5 9.6
2017-Sep-02 06:30S 28°03' E 153°53'5 9.7
2017-Sep-02 06:00S 28°08' E 153°53'5 9.7
2017-Sep-02 05:30S 28°13' E 153°53'5 9.6
2017-Sep-02 05:00S 28°17' E 153°52'5 9.5
2017-Sep-02 04:30S 28°22' E 153°52'5 9.5
2017-Sep-02 04:00S 28°27' E 153°52'25310.6
2017-Sep-01 04:12S 32°33' E 152°40'210.2
2017-Sep-01 04:00S 32°34' E 152°39'510.7
2017-Sep-01 03:30S 32°38' E 152°34'510.6
2017-Sep-01 03:00S 32°42' E 152°30'510.7
2017-Sep-01 02:30S 32°45' E 152°25'510.1
2017-Sep-01 02:00S 32°48' E 152°20'510.2
2017-Sep-01 01:30S 32°50' E 152°15'510.0
2017-Sep-01 01:00S 32°52' E 152°09'510.0
2017-Sep-01 00:30S 32°53' E 152°03'510.1
2017-Sep-01 00:00S 32°55' E 151°58'510.2
2017-Aug-31 23:30S 32°56' E 151°52'3 6.6
2017-Aug-31 23:00S 32°55' E 151°48'2 3.3
2017-Aug-31 22:30S 32°54' E 151°46'0 0.0
2017-Aug-31 22:00S 32°54' E 151°46'0 0.0
2017-Aug-31 21:30S 32°54' E 151°46'0 0.0
2017-Aug-31 21:00S 32°54' E 151°46'0 0.0
2017-Aug-31 20:30S 32°54' E 151°46'0 0.1
2017-Aug-31 20:00S 32°54' E 151°46'0 0.1
2017-Aug-31 19:30S 32°54' E 151°46'0 0.0
2017-Aug-31 19:00S 32°54' E 151°46'0 0.0
2017-Aug-31 18:30S 32°54' E 151°46'0 0.0
2017-Aug-31 18:00S 32°54' E 151°46'0 0.0
2017-Aug-31 17:30S 32°54' E 151°46'0 0.1
2017-Aug-31 17:00S 32°54' E 151°46'0 0.0
2017-Aug-31 16:30S 32°54' E 151°46'0 0.1
2017-Aug-31 16:00S 32°54' E 151°46'0 0.0
2017-Aug-31 15:30S 32°54' E 151°46'0 0.0
2017-Aug-31 15:00S 32°54' E 151°46'0 0.0
2017-Aug-31 14:30S 32°54' E 151°46'0 0.1
2017-Aug-31 14:00S 32°54' E 151°46'0 0.1
2017-Aug-31 13:30S 32°54' E 151°46'0 0.0
2017-Aug-31 13:00S 32°54' E 151°46'0 0.0
2017-Aug-31 12:30S 32°54' E 151°46'0 0.1
2017-Aug-31 12:00S 32°54' E 151°46'0 0.1
2017-Aug-31 11:30S 32°54' E 151°46'0 0.1
2017-Aug-31 11:00S 32°54' E 151°46'0 0.0
2017-Aug-31 10:30S 32°54' E 151°46'0 0.1
2017-Aug-31 10:00S 32°54' E 151°46'0 0.1
2017-Aug-31 09:30S 32°54' E 151°46'0 0.1
2017-Aug-31 09:00S 32°54' E 151°46'0 0.0
2017-Aug-31 08:30S 32°54' E 151°46'0 0.0
2017-Aug-31 08:00S 32°54' E 151°46'0 0.0
2017-Aug-31 07:30S 32°54' E 151°46'0 0.1
2017-Aug-31 07:00S 32°54' E 151°46'0 0.0
2017-Aug-31 06:30S 32°54' E 151°46'0 0.0
2017-Aug-31 06:00S 32°54' E 151°46'0 0.1
2017-Aug-31 05:30S 32°54' E 151°46'0 0.0
2017-Aug-31 05:00S 32°54' E 151°46'0 0.0
2017-Aug-31 04:30S 32°54' E 151°46'0 0.0
2017-Aug-31 04:00S 32°54' E 151°46'0 0.1
2017-Aug-31 03:30S 32°54' E 151°46'0 0.1
2017-Aug-31 03:00S 32°54' E 151°46'0 0.0
2017-Aug-31 02:30S 32°54' E 151°46'0 0.0
2017-Aug-31 02:00S 32°54' E 151°46'0 0.1
2017-Aug-31 01:30S 32°54' E 151°46'0 0.1
2017-Aug-31 01:00S 32°54' E 151°46'0 0.0
2017-Aug-31 00:30S 32°54' E 151°46'0 0.0
2017-Aug-31 00:00S 32°54' E 151°46'0 0.0
2017-Aug-30 23:30S 32°54' E 151°46'0 0.1
2017-Aug-30 23:00S 32°54' E 151°46'0 0.1
2017-Aug-30 22:30S 32°54' E 151°46'0 0.0
2017-Aug-30 22:00S 32°54' E 151°46'0 0.0
2017-Aug-30 21:30S 32°54' E 151°46'0 0.0
2017-Aug-30 21:00S 32°54' E 151°46'0 0.0
2017-Aug-30 20:30S 32°54' E 151°46'0 0.0
2017-Aug-30 20:00S 32°54' E 151°46'0 0.0
2017-Aug-30 19:30S 32°54' E 151°46'0 0.0
2017-Aug-30 19:00S 32°54' E 151°46'0 0.1
2017-Aug-30 18:30S 32°54' E 151°46'0 0.1
2017-Aug-30 18:00S 32°54' E 151°46'0 0.0
2017-Aug-30 17:30S 32°54' E 151°46'0 0.0
2017-Aug-30 17:00S 32°54' E 151°46'0 0.0
2017-Aug-30 16:30S 32°54' E 151°46'0 0.0
2017-Aug-30 16:00S 32°54' E 151°46'0 0.0
2017-Aug-30 15:30S 32°54' E 151°46'0 0.1
2017-Aug-30 15:00S 32°54' E 151°46'0 0.1
2017-Aug-30 14:30S 32°54' E 151°46'0 0.0
2017-Aug-30 14:00S 32°54' E 151°46'0 0.0
2017-Aug-30 13:30S 32°54' E 151°46'0 0.0
2017-Aug-30 13:00S 32°54' E 151°46'0 0.0
2017-Aug-30 12:30S 32°54' E 151°46'0 0.0
2017-Aug-30 12:00S 32°54' E 151°46'0 0.1
2017-Aug-30 11:30S 32°54' E 151°46'0 0.0
2017-Aug-30 11:00S 32°54' E 151°46'0 0.1
2017-Aug-30 10:30S 32°54' E 151°46'0 0.1
2017-Aug-30 10:00S 32°54' E 151°46'0 0.1
2017-Aug-30 09:30S 32°54' E 151°46'0 0.0
2017-Aug-30 09:00S 32°54' E 151°46'0 0.0
2017-Aug-30 08:30S 32°54' E 151°46'0 0.1
2017-Aug-30 08:00S 32°54' E 151°46'0 0.1
2017-Aug-30 07:30S 32°54' E 151°46'0 0.0
2017-Aug-30 07:00S 32°54' E 151°46'0 0.1
2017-Aug-30 06:30S 32°54' E 151°46'0 0.1
2017-Aug-30 06:00S 32°54' E 151°46'0 0.0
2017-Aug-30 05:30S 32°54' E 151°46'0 0.0
2017-Aug-30 05:00S 32°54' E 151°46'0 0.0
2017-Aug-30 04:30S 32°54' E 151°46'0 0.0
2017-Aug-30 04:00S 32°54' E 151°46'0 0.1
2017-Aug-30 03:30S 32°54' E 151°46'0 0.1
2017-Aug-30 03:00S 32°54' E 151°46'0 0.0
2017-Aug-30 02:30S 32°54' E 151°46'0 0.0
2017-Aug-30 02:00S 32°54' E 151°46'0 0.0
2017-Aug-30 01:30S 32°54' E 151°46'1 1.1
2017-Aug-30 01:00S 32°54' E 151°46'2 3.5
2017-Aug-30 00:28S 32°55' E 151°47'3 7.4
2017-Aug-30 00:00S 32°57' E 151°51'3 6.7
2017-Aug-29 23:30S 32°60' E 151°52'4 7.0
2017-Aug-29 23:00S 33°03' E 151°50'3 5.0
2017-Aug-29 22:30S 33°03' E 151°47'1 1.3
2017-Aug-29 21:40S 33°03' E 151°46'0 0.3
2017-Aug-29 21:28S 33°03' E 151°46'0 0.1
2017-Aug-29 20:58S 33°03' E 151°46'0 0.0
2017-Aug-29 20:28S 33°03' E 151°46'0 0.0
2017-Aug-29 19:58S 33°03' E 151°46'0 0.1
2017-Aug-29 19:28S 33°03' E 151°46'0 0.0
2017-Aug-29 18:58S 33°03' E 151°46'0 0.0
2017-Aug-29 18:28S 33°03' E 151°46'0 0.1
2017-Aug-29 17:58S 33°03' E 151°46'0 0.1
2017-Aug-29 17:25S 33°03' E 151°46'0 0.0
2017-Aug-29 16:55S 33°03' E 151°46'0 0.0
2017-Aug-29 16:28S 33°03' E 151°46'0 0.0
2017-Aug-29 15:58S 33°03' E 151°46'0 0.1
2017-Aug-29 15:28S 33°03' E 151°46'0 0.0
2017-Aug-29 14:58S 33°03' E 151°46'0 0.1
2017-Aug-29 14:28S 33°03' E 151°46'0 0.0
2017-Aug-29 13:58S 33°03' E 151°46'0 0.0
2017-Aug-29 13:28S 33°03' E 151°46'0 0.1
2017-Aug-29 12:58S 33°03' E 151°46'0 0.0
2017-Aug-29 12:28S 33°03' E 151°46'0 0.0
2017-Aug-29 11:58S 33°03' E 151°46'0 0.0
2017-Aug-29 11:25S 33°03' E 151°46'0 0.0
2017-Aug-29 08:01S 33°03' E 151°46'0 0.0
2017-Aug-29 05:31S 33°03' E 151°46'0 0.0
2017-Aug-29 05:13S 33°03' E 151°46'0 0.0
2017-Aug-29 04:58S 33°03' E 151°46'0 0.0
2017-Aug-29 01:04S 33°03' E 151°46'0 1.0
2017-Aug-29 00:58S 33°03' E 151°46'0 1.0
2017-Aug-29 00:30S 33°03' E 151°46'2 4.7
2017-Aug-29 00:00S 33°04' E 151°49'4 8.3
2017-Aug-28 23:30S 33°06' E 151°53'611.7
2017-Aug-28 23:00S 33°05' E 152°00'612.0
2017-Aug-28 22:30S 33°04' E 152°07'2 3.1
2017-Aug-28 21:58S 33°04' E 152°09'1 1.1
2017-Aug-28 21:28S 33°05' E 152°09'1 1.1
2017-Aug-28 20:58S 33°05' E 152°09'1 1.1
2017-Aug-28 20:28S 33°06' E 152°09'1 1.3
2017-Aug-28 19:58S 33°06' E 152°08'1 1.3
2017-Aug-28 19:28S 33°07' E 152°08'1 1.4
2017-Aug-28 19:00S 33°07' E 152°08'1 1.3
2017-Aug-28 18:28S 33°08' E 152°08'1 1.4
2017-Aug-28 17:58S 33°09' E 152°08'1 1.4
2017-Aug-28 17:28S 33°09' E 152°08'2 1.3
2017-Aug-28 15:40S 33°12' E 152°07'0 1.5
2017-Aug-28 15:31S 33°12' E 152°07'1 1.5
2017-Aug-28 14:50S 33°13' E 152°06'1 1.5
2017-Aug-28 14:11S 33°14' E 152°06'0 1.5
2017-Aug-28 14:00S 33°14' E 152°06'1 1.4
2017-Aug-28 13:20S 33°15' E 152°05'2 5.8
2017-Aug-28 13:00S 33°14' E 152°04'5 9.6
2017-Aug-28 12:31S 33°09' E 152°02'4 8.9
2017-Aug-28 12:00S 33°05' E 152°00'3 6.6
2017-Aug-28 11:30S 33°02' E 151°59'1 2.4
2017-Aug-28 11:00S 33°02' E 152°00'1 2.5
2017-Aug-28 10:30S 33°03' E 152°01'1 2.5
2017-Aug-28 10:01S 33°04' E 152°02'1 2.5
2017-Aug-28 09:31S 33°05' E 152°03'1 2.5
2017-Aug-28 09:00S 33°06' E 152°04'1 2.6
2017-Aug-28 08:31S 33°07' E 152°05'1 2.8
2017-Aug-28 08:00S 33°08' E 152°06'3 2.7
2017-Aug-28 06:53S 33°06' E 152°09'2 5.2
2017-Aug-28 06:31S 33°05' E 152°10'2 4.2
2017-Aug-28 06:00S 33°03' E 152°11'2 4.5
2017-Aug-28 05:30S 33°01' E 152°12'3 5.3
2017-Aug-28 05:00S 32°59' E 152°14'3 5.4
2017-Aug-28 04:30S 32°56' E 152°15'3 5.0
2017-Aug-28 04:00S 32°54' E 152°17'1 2.6
2017-Aug-28 03:30S 32°54' E 152°19'1 2.9
2017-Aug-28 03:00S 32°55' E 152°19'1 2.9
2017-Aug-28 02:30S 32°57' E 152°19'1 2.9
2017-Aug-28 02:00S 32°58' E 152°20'1 2.8
2017-Aug-28 01:30S 32°59' E 152°20'2 3.6
2017-Aug-28 01:00S 32°59' E 152°22'1 2.0
2017-Aug-28 00:30S 32°58' E 152°23'2 5.0
2017-Aug-28 00:00S 32°56' E 152°25'2 3.5
2017-Aug-27 23:30S 32°55' E 152°27'1 2.2
2017-Aug-27 23:00S 32°56' E 152°26'1 2.2
2017-Aug-27 22:30S 32°57' E 152°25'1 2.2
2017-Aug-27 22:00S 32°58' E 152°24'1 2.1
2017-Aug-27 21:30S 32°58' E 152°23'1 2.0
2017-Aug-27 20:59S 32°59' E 152°23'1 1.9
2017-Aug-27 20:28S 32°60' E 152°22'1 1.9
2017-Aug-27 19:58S 33°00' E 152°21'1 1.8
2017-Aug-27 19:29S 33°01' E 152°20'1 1.8
2017-Aug-27 18:59S 33°02' E 152°19'1 1.7
2017-Aug-27 18:29S 33°02' E 152°19'1 1.9
2017-Aug-27 17:59S 33°03' E 152°18'1 1.8
2017-Aug-27 17:29S 33°03' E 152°17'1 1.8
2017-Aug-27 16:53S 33°04' E 152°16'1 1.7
2017-Aug-27 16:29S 33°05' E 152°15'1 1.7
2017-Aug-27 15:59S 33°05' E 152°15'1 1.6
2017-Aug-27 15:29S 33°06' E 152°14'1 1.5
2017-Aug-27 14:59S 33°06' E 152°14'1 1.6
2017-Aug-27 14:29S 33°07' E 152°13'1 1.5
2017-Aug-27 13:59S 33°08' E 152°12'1 1.5
2017-Aug-27 13:29S 33°08' E 152°12'1 1.5
2017-Aug-27 12:59S 33°09' E 152°12'1 1.6
2017-Aug-27 12:29S 33°10' E 152°11'1 1.6
2017-Aug-27 11:59S 33°10' E 152°10'2 1.8
2017-Aug-27 10:47S 33°12' E 152°09'1 2.0
2017-Aug-27 10:05S 33°13' E 152°07'0 2.0
2017-Aug-27 09:59S 33°13' E 152°07'1 1.9
2017-Aug-27 09:29S 33°13' E 152°06'5 9.7
2017-Aug-27 08:55S 33°11' E 152°00'511.8
2017-Aug-27 08:30S 33°10' E 151°54'612.0
2017-Aug-27 08:01S 33°07' E 151°48'3 0.4
2017-Aug-26 23:33S 33°06' E 151°45'0 0.5
2017-Aug-26 23:27S 33°06' E 151°45'0 0.0
2017-Aug-26 23:00S 33°06' E 151°45'0 0.1
2017-Aug-26 22:30S 33°06' E 151°45'0 0.1
2017-Aug-26 22:00S 33°06' E 151°45'0 0.1
2017-Aug-26 21:30S 33°06' E 151°45'0 0.1
2017-Aug-26 21:00S 33°06' E 151°45'0 0.8
2017-Aug-26 20:30S 33°06' E 151°45'2 4.2
2017-Aug-26 20:00S 33°06' E 151°48'3 6.4
2017-Aug-26 19:30S 33°06' E 151°51'2 4.6
2017-Aug-26 19:00S 33°04' E 151°54'5 9.5
2017-Aug-26 18:31S 33°01' E 151°58'713.6
2017-Aug-26 18:00S 32°57' E 152°04'713.7
2017-Aug-26 17:30S 32°52' E 152°10'713.8
2017-Aug-26 17:00S 32°48' E 152°17'714.1
2017-Aug-26 16:31S 32°44' E 152°23'714.0
2017-Aug-26 16:01S 32°39' E 152°30'713.7
2017-Aug-26 15:30S 32°35' E 152°36'713.2
2017-Aug-26 15:00S 32°31' E 152°42'6 0.1
2017-Aug-24 11:43S 32°33' E 152°49'4 6.4
2017-Aug-24 11:09S 32°33' E 152°45'0 2.8
2017-Aug-24 11:00S 32°34' E 152°45'2 3.1
2017-Aug-24 10:30S 32°35' E 152°46'2 3.3
2017-Aug-24 10:01S 32°36' E 152°47'2 3.2
2017-Aug-24 09:31S 32°38' E 152°48'2 3.2
2017-Aug-24 09:01S 32°39' E 152°49'2 3.0
2017-Aug-24 08:30S 32°40' E 152°50'1 2.8
2017-Aug-24 08:00S 32°42' E 152°51'1 2.6
2017-Aug-24 07:30S 32°43' E 152°52'  

Dump ship's entire track history